Home > Products > Valid Products > MTR

000
SAUS45 KMSO 040154
MTRP69
METAR KP69 040152Z AUTO 00000KT 16/05 A2982 RMK AO1 SLP100 T01560050





000
SAUS45 KMSO 040054
MTRP69
METAR KP69 040052Z AUTO 00000KT 20/01 A2981 RMK AO1 SLP094 T02000011





000
SAUS45 KMSO 040054
MTRP69
METAR KP69 040052Z AUTO 00000KT 20/01 A2981 RMK AO1 SLP094 T02000011





000
SAUS45 KMSO 032354
MTRP69
METAR KP69 032352Z AUTO VRB03KT 23/01 A2981 RMK AO1 SLP090 T02330006
10250 20167 56014





000
SAUS45 KMSO 032354
MTRP69
METAR KP69 032352Z AUTO VRB03KT 23/01 A2981 RMK AO1 SLP090 T02330006
10250 20167 56014





000
SAUS45 KMSO 032254
MTRP69
METAR KP69 032252Z AUTO 15006KT 24/00 A2982 RMK AO1 SLP090 T02440000





000
SAUS45 KMSO 032254
MTRP69
METAR KP69 032252Z AUTO 15006KT 24/00 A2982 RMK AO1 SLP090 T02440000





000
SAUS45 KMSO 032154
MTRP69
METAR KP69 032152Z AUTO VRB05KT 24/00 A2984 RMK AO1 SLP094 T02440000





000
SAUS45 KMSO 032053
MTRP69
METAR KP69 032052Z AUTO 17006KT 23/00 A2986 RMK AO1 SLP102 T02330000
56029





000
SAUS45 KMSO 032053
MTRP69
METAR KP69 032052Z AUTO 17006KT 23/00 A2986 RMK AO1 SLP102 T02330000
56029





000
SAUS45 KMSO 031954
MTRP69
METAR KP69 031952Z AUTO 17004KT 22/M01 A2988 RMK AO1 SLP113
T02171011





000
SAUS45 KMSO 031954
MTRP69
METAR KP69 031952Z AUTO 17004KT 22/M01 A2988 RMK AO1 SLP113
T02171011





000
SAUS45 KMSO 031854
MTRP69
METAR KP69 031852Z AUTO 18004KT 20/01 A2991 RMK AO1 SLP124 T02000006





000
SAUS45 KMSO 031754
MTRP69
METAR KP69 031752Z AUTO 00000KT 17/00 A2995 RMK AO1 SLP137 T01670000
10167 20028 58028





000
SAUS45 KMSO 031754
MTRP69
METAR KP69 031752Z AUTO 00000KT 17/00 A2995 RMK AO1 SLP137 T01670000
10167 20028 58028





000
SAUS45 KMSO 031654
MTRP69
METAR KP69 031652Z AUTO 00000KT 12/01 A2998 RMK AO1 SLP152 T01220006





000
SAUS45 KMSO 031553
MTRP69
METAR KP69 031552Z AUTO 36003KT 09/02 A3001 RMK AO1 SLP164 T00890017





000
SAUS45 KMSO 031553
MTRP69
METAR KP69 031552Z AUTO 36003KT 09/02 A3001 RMK AO1 SLP164 T00890017





000
SAUS45 KMSO 031454
MTRP69
METAR KP69 031452Z AUTO 00000KT 06/02 A3003 RMK AO1 SLP173 T00560017
50003





000
SAUS45 KMSO 031354
MTRP69
METAR KP69 031352Z AUTO 00000KT 03/01 A3005 RMK AO1 SLP178 T00280006





000
SAUS45 KMSO 031354
MTRP69
METAR KP69 031352Z AUTO 00000KT 03/01 A3005 RMK AO1 SLP178 T00280006





000
SAUS45 KMSO 031254
MTRP69
METAR KP69 031252Z AUTO 35003KT 03/01 A3003 RMK AO1 SLP170 T00280006





000
SAUS45 KMSO 031254
MTRP69
METAR KP69 031252Z AUTO 35003KT 03/01 A3003 RMK AO1 SLP170 T00280006





000
SAUS45 KMSO 031154
MTRP69
METAR KP69 031152Z AUTO 35003KT 03/01 A3002 RMK AO1 SLP163 T00330006
10083 20033 51009





000
SAUS45 KMSO 031154
MTRP69
METAR KP69 031152Z AUTO 35003KT 03/01 A3002 RMK AO1 SLP163 T00330006
10083 20033 51009





000
SAUS45 KMSO 031053
MTRP69
METAR KP69 031052Z AUTO 31003KT 04/01 A3002 RMK AO1 SLP160 T00390011





000
SAUS45 KMSO 030954
MTRP69
METAR KP69 030952Z AUTO 33003KT 05/01 A3001 RMK AO1 SLP157 T00500011





000
SAUS45 KMSO 030853
MTRP69
METAR KP69 030852Z AUTO 36003KT 06/02 A2999 RMK AO1 SLP151 T00560017
53013





000
SAUS45 KMSO 030754
MTRP69
METAR KP69 030752Z AUTO 00000KT 06/02 A2998 RMK AO1 SLP145 T00610022
402390061





000
SAUS45 KMSO 030754
MTRP69
METAR KP69 030752Z AUTO 00000KT 06/02 A2998 RMK AO1 SLP145 T00610022
402390061





000
SAUS45 KMSO 030654
MTRP69
METAR KP69 030652Z AUTO 34003KT 07/02 A2996 RMK AO1 SLP139 T00720022





000
SAUS45 KMSO 030654
MTRP69
METAR KP69 030652Z AUTO 34003KT 07/02 A2996 RMK AO1 SLP139 T00720022





000
SAUS45 KMSO 030554
MTRP69
METAR KP69 030552Z AUTO 00000KT 08/03 A2995 RMK AO1 SLP135 T00830028
10211 20083 51022





000
SAUS45 KMSO 030554
MTRP69
METAR KP69 030552Z AUTO 00000KT 08/03 A2995 RMK AO1 SLP135 T00830028
10211 20083 51022





000
SAUS45 KMSO 030453
MTRP69
METAR KP69 030452Z AUTO 34004KT 09/03 A2994 RMK AO1 SLP134 T00940028





000
SAUS45 KMSO 030354
MTRP69
METAR KP69 030352Z AUTO 00000KT 11/03 A2992 RMK AO1 SLP130 T01060033





000
SAUS45 KMSO 030354
MTRP69
METAR KP69 030352Z AUTO 00000KT 11/03 A2992 RMK AO1 SLP130 T01060033





000
SAUS45 KMSO 030254
MTRP69
METAR KP69 030252Z AUTO 00000KT 13/04 A2988 RMK AO1 SLP119 T01280039
53007





000
SAUS45 KMSO 030154
MTRP69
METAR KP69 030152Z AUTO 00000KT 16/04 A2986 RMK AO1 SLP112 T01560039





000
SAUS45 KMSO 030054
MTRP69
METAR KP69 030052Z AUTO 00000KT 18/03 A2987 RMK AO1 SLP111 T01830028





000
SAUS45 KMSO 030054
MTRP69
METAR KP69 030052Z AUTO 00000KT 18/03 A2987 RMK AO1 SLP111 T01830028





000
SAUS45 KMSO 022354
MTRP69
METAR KP69 022352Z AUTO 00000KT 21/04 A2986 RMK AO1 SLP106 T02110039
10239 20200 55012





000
SAUS45 KMSO 022254
MTRP69
METAR KP69 022252Z AUTO 15005KT 22/01 A2986 RMK AO1 SLP103 T02220006





000
SAUS45 KMSO 022254
MTRP69
METAR KP69 022252Z AUTO 15005KT 22/01 A2986 RMK AO1 SLP103 T02220006





000
SAUS45 KMSO 022154
MTRP69
METAR KP69 022152Z AUTO VRB04KT 22/M01 A2988 RMK AO1 SLP109
T02221011





000
SAUS45 KMSO 022053
MTRP69
METAR KP69 022052Z AUTO VRB04KT 22/M01 A2990 RMK AO1 SLP115
T02221011 58008





000
SAUS45 KMSO 021954
MTRP69
METAR KP69 021952Z AUTO VRB03KT 23/M01 A2991 RMK AO1 SLP117
T02281006





000
SAUS45 KMSO 021854
MTRP69
METAR KP69 021852Z AUTO 00000KT 22/02 A2992 RMK AO1 SLP120 T02170017





000
SAUS45 KMSO 021854
MTRP69
METAR KP69 021852Z AUTO 00000KT 22/02 A2992 RMK AO1 SLP120 T02170017





000
SAUS45 KMSO 021754
MTRP69
METAR KP69 021752Z AUTO VRB03KT 21/02 A2992 RMK AO1 SLP123 T02110022
10211 20061 56013





000
SAUS45 KMSO 021754
MTRP69
METAR KP69 021752Z AUTO VRB03KT 21/02 A2992 RMK AO1 SLP123 T02110022
10211 20061 56013





000
SAUS45 KMSO 021654
MTRP69
METAR KP69 021652Z AUTO 00000KT 16/05 A2993 RMK AO1 SLP129 T01610050





000
SAUS45 KMSO 021554
MTRP69
METAR KP69 021552Z AUTO 00000KT 11/05 A2995 RMK AO1 SLP139 T01110050





000
SAUS45 KMSO 021454
MTRP69
METAR KP69 021452Z AUTO 00000KT 09/05 A2996 RMK AO1 SLP143 T00890050
51011





000
SAUS45 KMSO 021353
MTRP69
METAR KP69 021352Z AUTO 00000KT 06/04 A2996 RMK AO1 SLP144 T00610039





000
SAUS45 KMSO 021254
MTRP69
METAR KP69 021252Z AUTO 35003KT 06/04 A2994 RMK AO1 SLP135 T00610039





000
SAUS45 KMSO 021254
MTRP69
METAR KP69 021252Z AUTO 35003KT 06/04 A2994 RMK AO1 SLP135 T00610039





000
SAUS45 KMSO 021153
MTRP69
METAR KP69 021152Z AUTO 00000KT 06/04 A2993 RMK AO1 SLP125 T00610044
10111 20061 53016





000
SAUS45 KMSO 021153
MTRP69
METAR KP69 021152Z AUTO 00000KT 06/04 A2993 RMK AO1 SLP125 T00610044
10111 20061 53016





000
SAUS45 KMSO 021053
MTRP69
METAR KP69 021052Z AUTO 34004KT 07/05 A2991 RMK AO1 SLP117 T00720050





000
SAUS45 KMSO 020953
MTRP69
METAR KP69 020952Z AUTO 32003KT 08/06 A2990 RMK AO1 SLP113 T00780056





000
SAUS45 KMSO 020953
MTRP69
METAR KP69 020952Z AUTO 32003KT 08/06 A2990 RMK AO1 SLP113 T00780056





000
SAUS45 KMSO 020853
MTRP69
METAR KP69 020852Z AUTO 35003KT 08/06 A2988 RMK AO1 SLP106 T00830056
51005





000
SAUS45 KMSO 020853
MTRP69
METAR KP69 020852Z AUTO 35003KT 08/06 A2988 RMK AO1 SLP106 T00830056
51005





000
SAUS45 KMSO 020754
MTRP69
METAR KP69 020752Z AUTO 33003KT 09/06 A2987 RMK AO1 SLP106 T00940056
402720033





000
SAUS45 KMSO 020754
MTRP69
METAR KP69 020752Z AUTO 33003KT 09/06 A2987 RMK AO1 SLP106 T00940056
402720033





000
SAUS45 KMSO 020654
MTRP69
METAR KP69 020652Z AUTO 00000KT 10/06 A2987 RMK AO1 SLP106 T01000061





000
SAUS45 KMSO 020654
MTRP69
METAR KP69 020652Z AUTO 00000KT 10/06 A2987 RMK AO1 SLP106 T01000061





000
SAUS45 KMSO 020554
MTRP69
METAR KP69 020552Z AUTO 00000KT 11/07 A2986 RMK AO1 SLP107 T01110067
10244 20111 51018





000
SAUS45 KMSO 020554
MTRP69
METAR KP69 020552Z AUTO 00000KT 11/07 A2986 RMK AO1 SLP107 T01110067
10244 20111 51018





000
SAUS45 KMSO 020454
MTRP69
METAR KP69 020452Z AUTO 35003KT 12/07 A2986 RMK AO1 SLP107 T01170067





000
SAUS45 KMSO 020354
MTRP69
METAR KP69 020352Z AUTO 00000KT 13/07 A2984 RMK AO1 SLP104 T01280072





000
SAUS45 KMSO 020253
MTRP69
METAR KP69 020252Z AUTO 36003KT 15/08 A2981 RMK AO1 SLP095 T01500083
53000





000
SAUS45 KMSO 020154
MTRP69
METAR KP69 020152Z AUTO 36003KT 17/08 A2979 RMK AO1 SLP088 T01720078





000
SAUS45 KMSO 020154
MTRP69
METAR KP69 020152Z AUTO 36003KT 17/08 A2979 RMK AO1 SLP088 T01720078





000
SAUS45 KMSO 020054
MTRP69
METAR KP69 020052Z AUTO 35004KT 19/07 A2980 RMK AO1 SLP088 T01940067





000
SAUS45 KMSO 012354
MTRP69
METAR KP69 012352Z AUTO 00000KT 24/01 A2981 RMK AO1 SLP087 T02440011
10272 20156 56033





000
SAUS45 KMSO 012354
MTRP69
METAR KP69 012352Z AUTO 00000KT 24/01 A2981 RMK AO1 SLP087 T02440011
10272 20156 56033





000
SAUS45 KMSO 012254
MTRP69
METAR KP69 012252Z AUTO VRB03KT 26/03 A2983 RMK AO1 SLP093 T02560028





000
SAUS45 KMSO 012154
MTRP69
METAR KP69 012152Z AUTO 12003KT 24/01 A2987 RMK AO1 SLP109 T02440011





000
SAUS45 KMSO 012154
MTRP69
METAR KP69 012152Z AUTO 12003KT 24/01 A2987 RMK AO1 SLP109 T02440011





000
SAUS45 KMSO 012054
MTRP69
METAR KP69 012052Z AUTO 17006KT 24/02 A2991 RMK AO1 SLP119 T02440017
56042





000
SAUS45 KMSO 011954
MTRP69
METAR KP69 011952Z AUTO 00000KT 22/03 A2995 RMK AO1 SLP135 T02220033





000
SAUS45 KMSO 011854
MTRP69
METAR KP69 011852Z AUTO 00000KT 19/03 A2999 RMK AO1 SLP153 T01890028





000
SAUS45 KMSO 011854
MTRP69
METAR KP69 011852Z AUTO 00000KT 19/03 A2999 RMK AO1 SLP153 T01890028





000
SAUS45 KMSO 011754
MTRP69
METAR KP69 011752Z AUTO 36003KT 16/02 A3004 RMK AO1 SLP171 T01560022
10156 20033 58032





000
SAUS45 KMSO 011754
MTRP69
METAR KP69 011752Z AUTO 36003KT 16/02 A3004 RMK AO1 SLP171 T01560022
10156 20033 58032





000
SAUS45 KMSO 011654
MTRP69
METAR KP69 011652Z AUTO 35003KT 12/02 A3007 RMK AO1 SLP185 T01220022





000
SAUS45 KMSO 011654
MTRP69
METAR KP69 011652Z AUTO 35003KT 12/02 A3007 RMK AO1 SLP185 T01220022





000
SAUS45 KMSO 011554
MTRP69
METAR KP69 011552Z AUTO VRB03KT 09/02 A3011 RMK AO1 SLP200 T00940022





000
SAUS45 KMSO 011454
MTRP69
METAR KP69 011452Z AUTO 36003KT 06/02 A3014 RMK AO1 SLP211 T00560022
58008





000
SAUS45 KMSO 011454
MTRP69
METAR KP69 011452Z AUTO 36003KT 06/02 A3014 RMK AO1 SLP211 T00560022
58008





000
SAUS45 KMSO 011353
MTRP69
METAR KP69 011352Z AUTO 33005KT 04/02 A3015 RMK AO1 SLP215 T00390017





000
SAUS45 KMSO 011254
MTRP69
METAR KP69 011252Z AUTO 34003KT 03/02 A3015 RMK AO1 SLP215 T00330017





000
SAUS45 KMSO 011254
MTRP69
METAR KP69 011252Z AUTO 34003KT 03/02 A3015 RMK AO1 SLP215 T00330017





000
SAUS45 KMSO 011154
MTRP69
METAR KP69 011152Z AUTO VRB03KT 03/02 A3016 RMK AO1 SLP214 T00330017
10078 20033 56002





000
SAUS45 KMSO 011154
MTRP69
METAR KP69 011152Z AUTO VRB03KT 03/02 A3016 RMK AO1 SLP214 T00330017
10078 20033 56002





000
SAUS45 KMSO 011053
MTRP69
METAR KP69 011052Z AUTO 35005KT 04/02 A3017 RMK AO1 SLP213 T00390022





000
SAUS45 KMSO 010954
MTRP69
METAR KP69 010952Z AUTO 00000KT 04/02 A3016 RMK AO1 SLP212 T00440022





000
SAUS45 KMSO 010853
MTRP69
METAR KP69 010852Z AUTO 00000KT 06/03 A3017 RMK AO1 SLP213 T00560028
51003





000
SAUS45 KMSO 010754
MTRP69
METAR KP69 010752Z AUTO 35003KT 06/03 A3017 RMK AO1 SLP215 T00560028
402170022





000
SAUS45 KMSO 010754
MTRP69
METAR KP69 010752Z AUTO 35003KT 06/03 A3017 RMK AO1 SLP215 T00560028
402170022





000
SAUS45 KMSO 010654
MTRP69
METAR KP69 010652Z AUTO 36003KT 07/03 A3017 RMK AO1 SLP213 T00670033





000
SAUS45 KMSO 010554
MTRP69
METAR KP69 010552Z AUTO 00000KT 08/03 A3016 RMK AO1 SLP212 T00780033
10194 20078 51018





000
SAUS45 KMSO 010554
MTRP69
METAR KP69 010552Z AUTO 00000KT 08/03 A3016 RMK AO1 SLP212 T00780033
10194 20078 51018





000
SAUS45 KMSO 010454
MTRP69
METAR KP69 010452Z AUTO 35003KT 08/04 A3015 RMK AO1 SLP213 T00830039





000
SAUS45 KMSO 010353
MTRP69
METAR KP69 010352Z AUTO 35003KT 09/04 A3013 RMK AO1 SLP207 T00940039





000
SAUS45 KMSO 010254
MTRP69
METAR KP69 010252Z AUTO 00000KT 11/05 A3011 RMK AO1 SLP200 T01110050
55005





    US Dept of Commerce
    National Oceanic and Atmospheric Administration
    National Weather Service
    1325 East West Highway
    Silver Spring, MD 20910
    Page Author: NWS Internet Services Team
Disclaimer
Information Quality
Credits
Glossary
Privacy Policy
Freedom of Information Act (FOIA)
About Us
Career Opportunities